Time;durP1;ratioP1;P1;durP2;ratioP2;P2;SDS_P1;SDS_P2;PMS_P1;PMS_P2;Temp;Humidity;BMP_temperature;BMP_pressure;BME280_temperature;BME280_humidity;BME280_pressure;Samples;Min_cycle;Max_cycle;Signal;HPM_P1;HPM_P2
2022/10/21 00:00:52;;;;;;;28.70;17.00;;;13.50;99.90;;;;;;5044474;28;20029;-65
2022/10/21 00:03:22;;;;;;;28.70;16.67;;;13.50;99.90;;;;;;5030675;28;20040;-65
2022/10/21 00:05:48;;;;;;;31.63;15.90;;;13.50;99.90;;;;;;4996587;28;20125;-67
2022/10/21 00:08:14;;;;;;;28.25;15.57;;;13.50;99.90;;;;;;5041444;28;20017;-65
2022/10/21 00:10:40;;;;;;;25.40;14.13;;;13.60;99.90;;;;;;5047775;28;20061;-65
2022/10/21 00:13:06;;;;;;;21.60;13.88;;;13.60;99.90;;;;;;5052669;28;20040;-64
2022/10/21 00:15:32;;;;;;;21.25;13.52;;;13.70;99.90;;;;;;5051565;28;20063;-64
2022/10/21 00:17:58;;;;;;;25.85;14.55;;;13.60;99.90;;;;;;5049662;28;20538;-66
2022/10/21 00:20:23;;;;;;;29.00;14.52;;;13.60;99.90;;;;;;5050610;28;20040;-67
2022/10/21 00:22:49;;;;;;;22.88;13.07;;;13.60;99.90;;;;;;5050308;28;20025;-65
2022/10/21 00:25:14;;;;;;;23.55;13.88;;;13.50;99.90;;;;;;5048767;28;20049;-66
2022/10/21 00:27:40;;;;;;;22.33;13.38;;;13.40;99.90;;;;;;5051373;28;20021;-66
2022/10/21 00:30:07;;;;;;;24.90;13.32;;;13.40;99.90;;;;;;5049115;28;20036;-67
2022/10/21 00:32:33;;;;;;;24.58;12.82;;;13.30;99.90;;;;;;5050981;28;20036;-66
2022/10/21 00:34:59;;;;;;;23.42;12.15;;;13.20;99.90;;;;;;5033644;28;20029;-65
2022/10/21 00:37:24;;;;;;;26.75;14.43;;;13.10;99.90;;;;;;5054540;28;20025;-67
2022/10/21 00:39:51;;;;;;;22.42;13.95;;;13.00;99.90;;;;;;5050994;28;20025;-65
2022/10/21 00:42:20;;;;;;;24.88;13.35;;;12.90;99.90;;;;;;5063772;28;20048;-66
2022/10/21 00:45:04;;;;;;;26.20;12.98;;;12.80;99.90;;;;;;5050585;28;20108;-65
2022/10/21 00:47:41;;;;;;;29.00;13.50;;;12.80;99.90;;;;;;5054609;28;20025;-65
2022/10/21 00:50:18;;;;;;;21.98;11.93;;;12.70;99.90;;;;;;5068221;28;20036;-67
2022/10/21 00:52:44;;;;;;;25.10;13.18;;;12.70;99.90;;;;;;5039049;28;20021;-65
2022/10/21 00:55:10;;;;;;;22.67;12.68;;;12.60;99.90;;;;;;5033953;28;20032;-68
2022/10/21 00:57:35;;;;;;;26.25;11.82;;;12.60;99.90;;;;;;5034640;28;20040;-66
2022/10/21 01:00:03;;;;;;;28.13;10.90;;;12.70;99.90;;;;;;5037033;28;20033;-66
2022/10/21 01:02:29;;;;;;;21.35;12.13;;;12.80;99.90;;;;;;5039286;28;20065;-65
2022/10/21 01:04:59;;;;;;;21.08;12.15;;;12.80;99.90;;;;;;5051519;28;20521;-65
2022/10/21 01:07:25;;;;;;;25.13;11.85;;;12.90;99.90;;;;;;5057111;28;20445;-65
2022/10/21 01:09:51;;;;;;;22.92;12.00;;;12.90;99.90;;;;;;5044975;28;20029;-66
2022/10/21 01:12:47;;;;;;;21.90;12.02;;;12.90;99.90;;;;;;5040910;28;20024;-65
2022/10/21 01:15:31;;;;;;;20.23;11.70;;;12.80;99.90;;;;;;5037888;28;20037;-66
2022/10/21 01:18:09;;;;;;;26.80;11.43;;;12.80;99.90;;;;;;5046444;28;20059;-68
2022/10/21 01:20:43;;;;;;;21.00;11.95;;;12.80;99.90;;;;;;5036261;28;20048;-64
2022/10/21 01:23:51;;;;;;;21.63;11.70;;;12.80;99.90;;;;;;5044931;28;20017;-65
2022/10/21 01:26:44;;;;;;;24.95;11.80;;;12.80;99.90;;;;;;5040596;28;20065;-64
2022/10/21 01:29:41;;;;;;;20.10;11.35;;;12.80;99.90;;;;;;5048291;28;20032;-66
2022/10/21 01:32:16;;;;;;;20.70;12.05;;;12.80;99.90;;;;;;5042368;28;20021;-66
2022/10/21 01:35:23;;;;;;;19.38;12.70;;;12.80;99.90;;;;;;5035991;28;20029;-65
2022/10/21 01:38:01;;;;;;;22.88;11.82;;;12.90;99.90;;;;;;5049821;28;20073;-64
2022/10/21 01:40:36;;;;;;;19.25;10.93;;;12.90;99.90;;;;;;5057827;28;20060;-65
2022/10/21 01:43:26;;;;;;;23.15;10.68;;;12.90;99.90;;;;;;5049735;28;20515;-66
2022/10/21 01:45:58;;;;;;;20.90;11.80;;;12.90;99.90;;;;;;5042804;28;20526;-64
2022/10/21 01:48:29;;;;;;;19.77;10.88;;;13.00;99.90;;;;;;5044447;28;20025;-65
2022/10/21 01:51:02;;;;;;;21.08;11.50;;;13.00;99.90;;;;;;5037736;28;20519;-66
2022/10/21 01:53:40;;;;;;;18.83;11.52;;;13.00;99.90;;;;;;5049887;28;20028;-64
2022/10/21 01:56:10;;;;;;;21.73;10.60;;;13.00;99.90;;;;;;5039232;28;20082;-65
2022/10/21 01:58:38;;;;;;;19.83;10.80;;;12.90;99.90;;;;;;5040590;28;20060;-65
2022/10/21 02:01:05;;;;;;;18.00;10.40;;;12.90;99.90;;;;;;5047124;28;20128;-65
2022/10/21 02:03:36;;;;;;;20.73;10.50;;;12.90;99.90;;;;;;5035744;28;20025;-65
2022/10/21 02:06:02;;;;;;;20.98;10.80;;;12.90;99.90;;;;;;5028577;28;20037;-65
2022/10/21 02:08:27;;;;;;;19.25;10.70;;;12.90;99.90;;;;;;5047715;28;20029;-65
2022/10/21 02:10:57;;;;;;;19.40;11.02;;;13.00;99.90;;;;;;5031094;28;20090;-64
2022/10/21 02:13:40;;;;;;;21.70;10.50;;;13.10;99.90;;;;;;5044304;28;20064;-65
2022/10/21 02:16:09;;;;;;;20.75;10.95;;;13.10;99.90;;;;;;5050174;28;20021;-67
2022/10/21 02:18:35;;;;;;;21.20;9.55;;;13.10;99.90;;;;;;5047494;28;20821;-65
2022/10/21 02:21:07;;;;;;;17.10;10.45;;;13.10;99.90;;;;;;5042793;28;20029;-67
2022/10/21 02:23:57;;;;;;;17.05;9.20;;;13.10;99.90;;;;;;5035651;28;20653;-67
2022/10/21 02:26:24;;;;;;;17.00;10.25;;;13.10;99.90;;;;;;5049464;28;20057;-64
2022/10/21 02:28:51;;;;;;;19.52;10.00;;;13.00;99.90;;;;;;5049971;28;20376;-64
2022/10/21 02:31:50;;;;;;;17.10;9.45;;;13.00;99.90;;;;;;5036249;28;20029;-67
2022/10/21 02:34:48;;;;;;;14.45;8.88;;;12.90;99.90;;;;;;5041121;28;20029;-64
2022/10/21 02:37:20;;;;;;;14.32;8.18;;;12.90;99.90;;;;;;5039334;28;20059;-65
2022/10/21 02:39:51;;;;;;;19.42;9.23;;;12.90;99.90;;;;;;5026247;28;20040;-66
2022/10/21 02:42:21;;;;;;;14.60;8.23;;;12.90;99.90;;;;;;5044316;28;20021;-64
2022/10/21 02:44:47;;;;;;;17.30;9.25;;;12.90;99.90;;;;;;5040168;28;20510;-65
2022/10/21 02:47:15;;;;;;;19.90;8.57;;;13.00;99.90;;;;;;5056674;28;20029;-66
2022/10/21 02:49:43;;;;;;;18.75;8.68;;;13.00;99.90;;;;;;5030362;28;20114;-65
2022/10/21 02:52:08;;;;;;;16.92;8.18;;;13.00;99.90;;;;;;5055122;28;20078;-66
2022/10/21 02:54:34;;;;;;;16.77;8.15;;;13.00;99.90;;;;;;5057990;28;20431;-65
2022/10/21 02:56:59;;;;;;;15.48;9.25;;;13.00;99.90;;;;;;5055846;28;20025;-65
2022/10/21 02:59:25;;;;;;;14.68;7.93;;;12.90;99.90;;;;;;5039449;28;20032;-65
2022/10/21 03:01:51;;;;;;;19.55;8.48;;;12.90;99.90;;;;;;5037138;28;20033;-65
2022/10/21 03:04:16;;;;;;;14.50;7.72;;;12.80;99.90;;;;;;5034693;28;20603;-65
2022/10/21 03:06:42;;;;;;;14.70;7.25;;;12.80;99.90;;;;;;5024813;28;20087;-68
2022/10/21 03:09:07;;;;;;;19.90;7.28;;;12.90;99.90;;;;;;5044660;28;20036;-65
2022/10/21 03:11:33;;;;;;;14.43;7.85;;;12.90;99.90;;;;;;5043432;28;20450;-66
2022/10/21 03:13:58;;;;;;;13.77;7.35;;;12.90;99.90;;;;;;5056071;28;20029;-64
2022/10/21 03:16:24;;;;;;;13.32;7.28;;;12.90;99.90;;;;;;5053727;28;20033;-67
2022/10/21 03:18:50;;;;;;;15.35;6.90;;;12.90;99.90;;;;;;5035214;28;20496;-67
2022/10/21 03:21:15;;;;;;;17.05;6.28;;;13.00;99.90;;;;;;5031942;28;20037;-67
2022/10/21 03:23:41;;;;;;;12.73;6.32;;;13.00;99.90;;;;;;5046134;28;20040;-66
2022/10/21 03:26:06;;;;;;;11.90;6.30;;;13.00;99.90;;;;;;5034958;28;20025;-66
2022/10/21 03:28:32;;;;;;;13.00;6.55;;;13.00;99.90;;;;;;5048933;28;20484;-65
2022/10/21 03:30:57;;;;;;;14.65;7.38;;;13.00;99.90;;;;;;5055873;28;20323;-65
2022/10/21 03:33:23;;;;;;;14.25;6.68;;;13.00;99.90;;;;;;5048701;28;20040;-67
2022/10/21 03:35:48;;;;;;;14.90;6.25;;;12.90;99.90;;;;;;5054500;28;20037;-65
2022/10/21 03:38:14;;;;;;;10.48;6.28;;;12.90;99.90;;;;;;5048374;28;20036;-65
2022/10/21 03:40:40;;;;;;;13.57;6.40;;;12.90;99.90;;;;;;5051363;28;20100;-67
2022/10/21 03:43:05;;;;;;;12.30;5.82;;;12.80;99.90;;;;;;5052823;28;20032;-67
2022/10/21 03:45:31;;;;;;;12.18;6.88;;;12.80;99.90;;;;;;5053077;28;20380;-66
2022/10/21 03:47:56;;;;;;;14.35;6.95;;;12.90;99.90;;;;;;5045210;28;20050;-66
2022/10/21 03:50:22;;;;;;;9.57;6.88;;;12.90;99.90;;;;;;5049086;28;20106;-65
2022/10/21 03:52:48;;;;;;;13.82;5.72;;;12.90;99.90;;;;;;5046987;28;20044;-66
2022/10/21 03:55:13;;;;;;;15.18;6.32;;;12.80;99.90;;;;;;5043405;28;20032;-67
2022/10/21 03:57:39;;;;;;;10.80;6.88;;;12.90;99.90;;;;;;5030028;28;20127;-65
2022/10/21 04:00:05;;;;;;;9.20;5.70;;;12.80;99.90;;;;;;5050719;28;20027;-66
2022/10/21 04:02:31;;;;;;;12.98;6.53;;;12.80;99.90;;;;;;5050381;28;20028;-64
2022/10/21 04:04:56;;;;;;;9.75;5.47;;;12.80;99.90;;;;;;5013957;28;20554;-65
2022/10/21 04:07:22;;;;;;;10.20;6.13;;;12.70;99.90;;;;;;5047738;28;20029;-65
2022/10/21 04:09:47;;;;;;;21.75;6.07;;;12.70;99.90;;;;;;5041803;28;20040;-67
2022/10/21 04:12:13;;;;;;;13.60;5.68;;;12.70;99.90;;;;;;5031440;28;20068;-67
2022/10/21 04:14:38;;;;;;;15.00;5.80;;;12.80;99.90;;;;;;5049786;22;20050;-69
2022/10/21 04:17:04;;;;;;;10.13;5.50;;;12.80;99.90;;;;;;5000082;28;20029;-70
2022/10/21 04:19:30;;;;;;;9.75;5.32;;;12.80;99.90;;;;;;5006725;28;20456;-71
2022/10/21 04:21:55;;;;;;;10.30;4.82;;;12.90;99.90;;;;;;5026404;28;20556;-70
2022/10/21 04:24:21;;;;;;;17.23;5.60;;;12.90;99.90;;;;;;5018093;28;20029;-68
2022/10/21 04:26:46;;;;;;;7.90;4.65;;;12.90;99.90;;;;;;5026686;28;20032;-69
2022/10/21 04:29:12;;;;;;;12.27;5.82;;;12.90;99.90;;;;;;5017172;28;20052;-71
2022/10/21 04:31:37;;;;;;;11.90;6.30;;;13.00;99.90;;;;;;5026593;28;20025;-69
2022/10/21 04:34:03;;;;;;;10.70;5.53;;;13.00;99.90;;;;;;4997450;28;20041;-69
2022/10/21 04:36:28;;;;;;;9.65;5.00;;;13.00;99.90;;;;;;5017860;28;20041;-72
2022/10/21 04:38:54;;;;;;;10.80;5.32;;;13.00;99.90;;;;;;5002315;28;20499;-71
2022/10/21 04:41:20;;;;;;;8.90;6.25;;;13.00;99.90;;;;;;5020691;28;20060;-72
2022/10/21 04:43:45;;;;;;;7.70;4.53;;;13.10;99.90;;;;;;5011354;28;20140;-70
2022/10/21 04:46:15;;;;;;;9.43;4.93;;;13.10;99.90;;;;;;5008167;28;20117;-69
2022/10/21 04:48:42;;;;;;;15.90;4.93;;;13.10;99.90;;;;;;5025167;28;20018;-69
2022/10/21 04:51:08;;;;;;;15.43;5.88;;;13.20;99.90;;;;;;5028993;28;20586;-70
2022/10/21 04:53:33;;;;;;;6.53;4.03;;;13.20;99.90;;;;;;5023921;28;20056;-68
2022/10/21 04:55:59;;;;;;;7.20;4.63;;;13.20;99.90;;;;;;5026710;28;20120;-68
2022/10/21 04:58:24;;;;;;;7.07;3.65;;;13.20;99.90;;;;;;5011692;28;20121;-70
2022/10/21 05:00:50;;;;;;;14.80;4.43;;;13.20;99.90;;;;;;5002814;28;20034;-69
2022/10/21 05:03:17;;;;;;;7.30;4.25;;;13.30;99.90;;;;;;5010214;28;20036;-70
2022/10/21 05:05:42;;;;;;;6.65;4.75;;;13.20;99.90;;;;;;5005789;28;20404;-69
2022/10/21 05:08:08;;;;;;;12.57;4.15;;;13.30;99.90;;;;;;5030422;28;20029;-68
2022/10/21 05:10:34;;;;;;;5.65;4.43;;;13.20;99.90;;;;;;5030108;28;20159;-69
2022/10/21 05:12:59;;;;;;;5.35;4.35;;;13.20;99.90;;;;;;5028034;28;20492;-69
2022/10/21 05:15:25;;;;;;;6.53;3.97;;;13.20;99.90;;;;;;5022071;28;20123;-69
2022/10/21 05:17:52;;;;;;;7.28;4.00;;;13.30;99.90;;;;;;5023584;28;20022;-71
2022/10/21 05:20:18;;;;;;;8.70;3.70;;;13.30;99.90;;;;;;5024687;28;20025;-69
2022/10/21 05:22:44;;;;;;;5.55;3.92;;;13.30;99.90;;;;;;5022437;28;20033;-69
2022/10/21 05:25:10;;;;;;;9.15;4.07;;;13.40;99.90;;;;;;5020830;28;20038;-70
2022/10/21 05:27:35;;;;;;;10.25;3.60;;;13.40;99.90;;;;;;5026873;28;20032;-69
2022/10/21 05:30:03;;;;;;;8.88;4.03;;;13.40;99.90;;;;;;5006763;28;20032;-67
2022/10/21 05:32:28;;;;;;;7.25;3.92;;;13.40;99.90;;;;;;5008103;28;20160;-69
2022/10/21 05:34:54;;;;;;;6.28;4.00;;;13.50;99.90;;;;;;5021667;28;20556;-67
2022/10/21 05:37:19;;;;;;;9.82;3.88;;;13.50;99.90;;;;;;5006599;28;20052;-67
2022/10/21 05:39:45;;;;;;;7.28;3.33;;;13.50;99.90;;;;;;5010241;28;20527;-70
2022/10/21 05:42:10;;;;;;;8.27;4.25;;;13.50;99.90;;;;;;5002644;28;20068;-71
2022/10/21 05:44:36;;;;;;;8.90;3.72;;;13.60;99.90;;;;;;5027323;28;20552;-69
2022/10/21 05:47:02;;;;;;;7.45;3.60;;;13.60;99.90;;;;;;5030445;28;20107;-70
2022/10/21 05:49:27;;;;;;;6.82;3.38;;;13.60;99.90;;;;;;5010864;28;20021;-69
2022/10/21 05:51:53;;;;;;;7.45;3.58;;;13.60;99.90;;;;;;5029972;28;20029;-68
2022/10/21 05:54:19;;;;;;;5.32;3.58;;;13.60;99.90;;;;;;5030043;28;20064;-68
2022/10/21 05:56:44;;;;;;;5.88;3.85;;;13.60;99.90;;;;;;5029893;28;20022;-69
2022/10/21 05:59:10;;;;;;;4.28;3.03;;;13.60;99.90;;;;;;5026670;28;20025;-69
2022/10/21 06:01:36;;;;;;;7.45;4.13;;;13.60;99.90;;;;;;5011546;28;20064;-71
2022/10/21 06:04:02;;;;;;;4.63;3.50;;;13.60;99.90;;;;;;5020691;28;20033;-70
2022/10/21 06:06:28;;;;;;;10.07;3.58;;;13.60;99.90;;;;;;5008264;28;20045;-69
2022/10/21 06:08:53;;;;;;;6.82;4.07;;;13.60;99.90;;;;;;5024069;28;20072;-68
2022/10/21 06:11:19;;;;;;;7.30;3.90;;;13.60;99.90;;;;;;5023045;28;20018;-70
2022/10/21 06:13:45;;;;;;;7.65;3.63;;;13.60;99.90;;;;;;5028793;28;20528;-70
2022/10/21 06:16:12;;;;;;;5.35;3.42;;;13.60;99.90;;;;;;5030229;28;20385;-70
2022/10/21 06:18:38;;;;;;;7.68;3.75;;;13.60;99.90;;;;;;5015789;28;20032;-69
2022/10/21 06:21:04;;;;;;;13.30;4.38;;;13.60;99.90;;;;;;5022802;28;20051;-69
2022/10/21 06:23:30;;;;;;;6.10;3.67;;;13.60;99.90;;;;;;5020241;28;20492;-69
2022/10/21 06:26:02;;;;;;;8.20;3.85;;;13.60;99.90;;;;;;5024132;28;20476;-70
2022/10/21 06:28:29;;;;;;;6.00;3.78;;;13.60;99.90;;;;;;5023301;28;20088;-70
2022/10/21 06:30:55;;;;;;;5.50;4.07;;;13.70;99.90;;;;;;5024501;28;20031;-69
2022/10/21 06:33:21;;;;;;;5.30;3.72;;;13.70;99.90;;;;;;5028585;28;20026;-70
2022/10/21 06:35:46;;;;;;;6.70;3.72;;;13.70;99.90;;;;;;5027386;28;20443;-68
2022/10/21 06:38:12;;;;;;;7.75;3.85;;;13.70;99.90;;;;;;5027880;28;20030;-71
2022/10/21 06:40:38;;;;;;;4.45;3.03;;;13.70;99.90;;;;;;5022012;28;20686;-69
2022/10/21 06:43:03;;;;;;;6.93;3.35;;;13.80;99.90;;;;;;5028779;28;20044;-70
2022/10/21 06:45:29;;;;;;;5.35;3.75;;;13.80;99.90;;;;;;5026182;28;20100;-71
2022/10/21 06:47:54;;;;;;;8.02;3.80;;;13.80;99.90;;;;;;5000258;28;20511;-70
2022/10/21 06:50:20;;;;;;;9.10;3.30;;;13.90;99.90;;;;;;5018564;28;20021;-69
2022/10/21 06:52:48;;;;;;;5.78;3.10;;;13.90;99.90;;;;;;5017090;28;20096;-68
2022/10/21 06:55:14;;;;;;;7.35;3.42;;;13.90;99.90;;;;;;5009562;28;20049;-70
2022/10/21 06:57:40;;;;;;;7.97;3.60;;;13.90;99.90;;;;;;5014519;28;20037;-70
2022/10/21 07:00:06;;;;;;;5.22;3.65;;;14.00;99.90;;;;;;5006077;28;20032;-71
2022/10/21 07:02:31;;;;;;;5.80;3.25;;;13.90;99.90;;;;;;5026023;28;20037;-69
2022/10/21 07:04:57;;;;;;;11.30;3.88;;;14.00;99.90;;;;;;5021707;28;20034;-69
2022/10/21 07:07:23;;;;;;;4.90;3.47;;;14.00;99.90;;;;;;5005243;28;20107;-70
2022/10/21 07:09:49;;;;;;;4.38;3.10;;;14.00;99.90;;;;;;5017178;28;20029;-71
2022/10/21 07:12:15;;;;;;;4.75;3.72;;;14.00;99.90;;;;;;5015977;28;20033;-69
2022/10/21 07:14:41;;;;;;;14.93;4.55;;;14.00;99.90;;;;;;5023427;28;20052;-73
2022/10/21 07:17:06;;;;;;;12.50;3.47;;;14.00;99.90;;;;;;4997597;28;20045;-70
2022/10/21 07:19:32;;;;;;;7.88;3.78;;;14.00;99.90;;;;;;5027589;28;20037;-70
2022/10/21 07:21:58;;;;;;;8.95;3.15;;;14.10;99.90;;;;;;5024402;28;20120;-69
2022/10/21 07:24:24;;;;;;;6.63;3.60;;;14.10;99.90;;;;;;5017351;28;20038;-68
2022/10/21 07:26:50;;;;;;;7.82;3.45;;;14.10;99.90;;;;;;5021499;28;20029;-69
2022/10/21 07:29:16;;;;;;;10.05;3.40;;;14.10;99.90;;;;;;5024642;28;20883;-69
2022/10/21 07:31:42;;;;;;;4.97;3.50;;;14.10;99.90;;;;;;5028532;28;20029;-70
2022/10/21 07:34:08;;;;;;;6.97;3.10;;;14.20;99.90;;;;;;5021056;28;20040;-70
2022/10/21 07:36:36;;;;;;;6.25;3.40;;;14.20;99.90;;;;;;5023346;28;20211;-70
2022/10/21 07:39:05;;;;;;;6.93;3.22;;;14.30;99.90;;;;;;5004344;28;20034;-70
2022/10/21 07:41:34;;;;;;;10.55;3.60;;;14.40;99.90;;;;;;5013705;28;20083;-70
2022/10/21 07:44:01;;;;;;;5.22;3.22;;;14.40;99.90;;;;;;5004841;28;20035;-70
2022/10/21 07:46:26;;;;;;;6.78;3.47;;;14.50;99.90;;;;;;5026721;28;20009;-70
2022/10/21 07:48:52;;;;;;;7.10;3.13;;;14.50;99.90;;;;;;5021446;28;20033;-70
2022/10/21 07:51:20;;;;;;;8.02;3.35;;;14.60;99.90;;;;;;5019535;28;20025;-68
2022/10/21 07:53:49;;;;;;;4.13;3.00;;;14.60;99.90;;;;;;5010399;28;20032;-71
2022/10/21 07:56:18;;;;;;;6.15;3.03;;;14.70;99.90;;;;;;5021885;28;20072;-70
2022/10/21 07:58:45;;;;;;;5.00;2.88;;;14.70;99.90;;;;;;5026515;28;20250;-70
2022/10/21 08:01:12;;;;;;;4.68;3.25;;;14.80;99.90;;;;;;5003100;28;20075;-69
2022/10/21 08:03:38;;;;;;;8.60;3.08;;;14.80;99.90;;;;;;5007133;28;20041;-68
2022/10/21 08:06:06;;;;;;;7.60;3.40;;;14.80;99.90;;;;;;5013212;28;20048;-69
2022/10/21 08:08:32;;;;;;;15.63;6.53;;;14.80;99.90;;;;;;5025335;28;21844;-70
2022/10/21 08:10:57;;;;;;;15.88;7.55;;;14.80;99.90;;;;;;4997663;28;20026;-70
2022/10/21 08:13:23;;;;;;;14.82;7.53;;;14.80;99.90;;;;;;5000165;28;20022;-69
2022/10/21 08:15:52;;;;;;;7.93;4.55;;;14.80;99.90;;;;;;5013942;28;20026;-69
2022/10/21 08:18:18;;;;;;;5.38;2.60;;;14.90;99.90;;;;;;5018511;28;20037;-69
2022/10/21 08:20:45;;;;;;;5.80;3.47;;;14.90;99.90;;;;;;5028143;28;20469;-69
2022/10/21 08:23:18;;;;;;;9.07;3.22;;;14.90;99.90;;;;;;5021842;28;20104;-69
2022/10/21 08:25:55;;;;;;;7.90;3.08;;;14.90;99.90;;;;;;4973680;28;20614;-70
2022/10/21 08:28:23;;;;;;;12.13;4.00;;;14.80;99.90;;;;;;5023451;28;20081;-69
2022/10/21 08:30:48;;;;;;;7.97;3.58;;;14.70;99.90;;;;;;5006149;28;20029;-69
2022/10/21 08:33:14;;;;;;;11.48;3.58;;;14.60;99.90;;;;;;5025507;28;20025;-69
2022/10/21 08:35:40;;;;;;;7.25;3.40;;;14.60;99.90;;;;;;5018833;28;20033;-68
2022/10/21 08:38:07;;;;;;;7.53;3.70;;;14.60;99.90;;;;;;5023864;28;20092;-69
2022/10/21 08:40:38;;;;;;;8.70;3.05;;;14.60;99.90;;;;;;5029521;28;20033;-69
2022/10/21 08:43:21;;;;;;;12.32;3.70;;;14.50;99.90;;;;;;5029718;28;20492;-68
2022/10/21 08:46:12;;;;;;;7.03;3.13;;;14.50;99.90;;;;;;5025905;28;20400;-69
2022/10/21 08:48:46;;;;;;;6.05;4.10;;;14.50;99.90;;;;;;5022762;28;20511;-69
2022/10/21 08:51:38;;;;;;;11.80;4.28;;;14.50;99.90;;;;;;5024840;28;20021;-69
2022/10/21 08:54:11;;;;;;;10.90;3.75;;;14.50;99.90;;;;;;5020861;28;20046;-68
2022/10/21 08:56:36;;;;;;;5.90;3.60;;;14.50;99.90;;;;;;5023364;28;20029;-67
2022/10/21 08:59:02;;;;;;;10.05;4.57;;;14.40;99.90;;;;;;5023874;28;20103;-70
2022/10/21 09:01:43;;;;;;;11.00;3.38;;;14.40;99.90;;;;;;5021632;28;20040;-69
2022/10/21 09:04:20;;;;;;;7.20;3.50;;;14.50;99.90;;;;;;5009041;28;20029;-68
2022/10/21 09:07:03;;;;;;;11.23;4.00;;;14.50;99.90;;;;;;5014377;28;20045;-69
2022/10/21 09:09:50;;;;;;;10.63;3.47;;;14.50;99.90;;;;;;5023925;28;20025;-69
2022/10/21 09:12:42;;;;;;;7.78;4.18;;;14.50;99.90;;;;;;5011843;28;20036;-69
2022/10/21 09:15:33;;;;;;;8.15;4.10;;;14.50;99.90;;;;;;5022807;28;20057;-68
2022/10/21 09:18:25;;;;;;;10.77;3.75;;;14.50;99.90;;;;;;5027747;28;20588;-70
2022/10/21 09:21:13;;;;;;;7.15;3.63;;;14.50;99.90;;;;;;5023177;28;20122;-72
2022/10/21 09:23:45;;;;;;;12.10;3.50;;;14.60;99.90;;;;;;5023202;28;20036;-70
2022/10/21 09:26:13;;;;;;;9.50;3.65;;;14.60;99.90;;;;;;5024768;28;20040;-69
2022/10/21 09:28:38;;;;;;;5.45;3.55;;;14.60;99.90;;;;;;5029764;28;20026;-70
2022/10/21 09:31:17;;;;;;;14.20;4.18;;;14.60;99.90;;;;;;5027517;28;20370;-70
2022/10/21 09:33:45;;;;;;;9.27;3.72;;;14.70;99.90;;;;;;5025366;28;20026;-71
2022/10/21 09:36:25;;;;;;;8.63;3.17;;;14.70;99.90;;;;;;5006845;28;20119;-71
2022/10/21 09:39:05;;;;;;;7.13;3.67;;;14.70;99.90;;;;;;5026347;28;20048;-70
2022/10/21 09:41:41;;;;;;;6.45;3.85;;;14.80;99.90;;;;;;5027721;28;20037;-71
2022/10/21 09:44:19;;;;;;;13.30;5.20;;;14.80;99.90;;;;;;5015040;28;20030;-70
2022/10/21 09:46:46;;;;;;;10.15;4.38;;;14.80;99.90;;;;;;5027196;28;20496;-69
2022/10/21 09:49:35;;;;;;;6.32;3.78;;;14.80;99.90;;;;;;5022292;28;20025;-71
2022/10/21 09:52:03;;;;;;;7.80;4.10;;;14.80;99.90;;;;;;5026392;28;20079;-71
2022/10/21 09:54:33;;;;;;;5.70;4.00;;;14.80;99.90;;;;;;5021725;28;20476;-70
2022/10/21 09:57:05;;;;;;;18.25;5.63;;;14.80;99.90;;;;;;5019928;28;20026;-70
2022/10/21 09:59:31;;;;;;;6.95;4.00;;;14.80;99.90;;;;;;5025626;28;20033;-71
2022/10/21 10:02:06;;;;;;;9.30;4.22;;;14.80;99.90;;;;;;5024059;28;20665;-70
2022/10/21 10:04:33;;;;;;;6.18;3.58;;;14.80;99.90;;;;;;5021543;28;20119;-71
2022/10/21 10:07:19;;;;;;;9.18;3.78;;;14.80;99.90;;;;;;5008430;28;20034;-70
2022/10/21 10:09:45;;;;;;;10.25;3.65;;;14.80;99.90;;;;;;5019978;28;20034;-69
2022/10/21 10:12:13;;;;;;;7.07;3.22;;;14.90;99.90;;;;;;5018528;28;20036;-68
2022/10/21 10:14:41;;;;;;;7.72;3.83;;;14.90;99.90;;;;;;5023210;28;20037;-68
2022/10/21 10:17:29;;;;;;;6.10;3.42;;;14.90;99.90;;;;;;5023026;28;20040;-69
2022/10/21 10:20:03;;;;;;;9.25;3.83;;;15.00;99.90;;;;;;5007272;28;20120;-72
2022/10/21 10:22:37;;;;;;;7.43;3.17;;;15.00;99.90;;;;;;5024191;28;20080;-68
2022/10/21 10:25:20;;;;;;;5.45;2.63;;;15.00;99.90;;;;;;5018982;28;20043;-70
2022/10/21 10:28:17;;;;;;;6.47;3.17;;;15.00;99.90;;;;;;5016442;28;20022;-71
2022/10/21 10:30:42;;;;;;;8.32;3.00;;;15.00;99.90;;;;;;5011313;28;20052;-70
2022/10/21 10:33:34;;;;;;;8.02;3.30;;;15.00;99.90;;;;;;5004986;28;20025;-69
2022/10/21 10:36:03;;;;;;;5.93;3.08;;;15.00;99.90;;;;;;5019782;28;20026;-70
2022/10/21 10:38:31;;;;;;;8.90;2.58;;;15.10;99.90;;;;;;5023115;28;20076;-71
2022/10/21 10:41:09;;;;;;;6.95;3.03;;;15.00;99.90;;;;;;5028914;28;20018;-70
2022/10/21 10:43:42;;;;;;;5.60;2.80;;;15.10;99.90;;;;;;5019951;28;20511;-70
2022/10/21 10:46:14;;;;;;;8.82;3.15;;;15.20;99.90;;;;;;5029269;28;20500;-69
2022/10/21 10:48:43;;;;;;;4.20;2.95;;;15.20;99.90;;;;;;5021667;28;20038;-70
2022/10/21 10:51:21;;;;;;;5.93;3.53;;;15.20;99.90;;;;;;5019932;28;20022;-70
2022/10/21 10:54:19;;;;;;;8.88;3.53;;;15.20;99.90;;;;;;5023575;28;20057;-71
2022/10/21 10:56:59;;;;;;;6.70;3.05;;;15.20;99.90;;;;;;4996329;28;20054;-69
2022/10/21 10:59:34;;;;;;;4.95;3.30;;;15.30;99.90;;;;;;5016387;28;20038;-71
2022/10/21 11:02:10;;;;;;;30.98;13.13;;;15.30;99.90;;;;;;5016182;28;20026;-72
2022/10/21 11:04:40;;;;;;;9.32;4.25;;;15.30;99.90;;;;;;5024711;28;20022;-70
2022/10/21 11:07:30;;;;;;;10.70;4.18;;;15.40;99.90;;;;;;4998278;28;20148;-71
2022/10/21 11:10:03;;;;;;;7.32;2.58;;;15.50;99.90;;;;;;5023966;28;20075;-72
2022/10/21 11:12:29;;;;;;;6.93;2.83;;;15.70;99.90;;;;;;5010736;28;20033;-71
2022/10/21 11:14:57;;;;;;;12.45;2.97;;;15.80;99.90;;;;;;4993238;28;20066;-71
2022/10/21 11:17:53;;;;;;;4.40;2.65;;;15.90;99.90;;;;;;5017825;28;20045;-71
2022/10/21 11:20:35;;;;;;;6.38;2.67;;;15.90;99.90;;;;;;5026436;28;20037;-71
2022/10/21 11:23:17;;;;;;;5.68;2.65;;;15.90;99.90;;;;;;5020733;28;20157;-71
2022/10/21 11:26:05;;;;;;;5.22;3.00;;;16.00;99.90;;;;;;5016248;28;20112;-70
2022/10/21 11:28:49;;;;;;;7.20;2.30;;;16.10;99.90;;;;;;5024799;28;20135;-71
2022/10/21 11:31:56;;;;;;;7.65;2.58;;;16.20;99.90;;;;;;5019927;28;20599;-71
2022/10/21 11:34:47;;;;;;;8.18;2.55;;;16.30;99.90;;;;;;4967001;28;20124;-70
2022/10/21 11:37:50;;;;;;;5.80;2.25;;;16.50;99.90;;;;;;5020539;28;20041;-70
2022/10/21 11:40:29;;;;;;;2.53;1.90;;;16.70;99.90;;;;;;5010898;28;20041;-69
2022/10/21 11:43:00;;;;;;;4.53;2.10;;;17.00;99.90;;;;;;5013230;28;20032;-71
2022/10/21 11:45:51;;;;;;;6.07;1.90;;;17.00;99.90;;;;;;5022605;28;20053;-70
2022/10/21 11:48:44;;;;;;;3.72;2.15;;;17.30;99.90;;;;;;5025582;28;20037;-72
2022/10/21 11:51:22;;;;;;;3.38;2.00;;;17.50;99.90;;;;;;5020017;28;20049;-71
2022/10/21 11:54:26;;;;;;;6.25;1.88;;;17.70;99.90;;;;;;5012045;28;20488;-70
2022/10/21 11:57:08;;;;;;;4.07;1.98;;;17.80;99.90;;;;;;5028761;28;20041;-70
2022/10/21 12:00:04;;;;;;;3.45;2.03;;;18.00;99.90;;;;;;5025530;28;20401;-70
2022/10/21 12:02:42;;;;;;;3.95;1.55;;;18.10;99.90;;;;;;5023956;28;20482;-71
2022/10/21 12:05:18;;;;;;;5.05;1.65;;;18.20;99.90;;;;;;5008452;28;20030;-71
2022/10/21 12:07:49;;;;;;;7.45;1.77;;;18.40;99.90;;;;;;5001851;28;20404;-71
2022/10/21 12:10:36;;;;;;;4.50;1.95;;;18.40;99.90;;;;;;5023983;28;20028;-70
2022/10/21 12:13:07;;;;;;;3.30;2.38;;;18.50;99.90;;;;;;5028375;28;20035;-70
2022/10/21 12:15:40;;;;;;;2.55;1.40;;;18.80;99.90;;;;;;5024610;28;20031;-71
2022/10/21 12:18:10;;;;;;;3.05;1.70;;;18.90;99.90;;;;;;5028179;28;20030;-70
2022/10/21 12:23:06;;;;;;;5.55;2.05;;;19.00;99.90;;;;;;5008045;28;20069;-70
2022/10/21 12:26:23;;;;;;;2.35;1.30;;;19.00;99.90;;;;;;4994796;28;20449;-70
2022/10/21 12:29:12;;;;;;;4.50;1.60;;;19.10;99.90;;;;;;4929502;29;20499;-72
2022/10/21 12:32:04;;;;;;;7.25;2.00;;;19.20;99.90;;;;;;4922073;29;20412;-70
2022/10/21 12:34:30;;;;;;;4.90;1.58;;;19.40;99.90;;;;;;4973011;28;20049;-70
2022/10/21 12:36:55;;;;;;;2.70;1.52;;;19.30;99.90;;;;;;5009669;28;20030;-71
2022/10/21 12:39:33;;;;;;;3.03;1.13;;;19.10;99.90;;;;;;4983458;28;20044;-71
2022/10/21 12:42:18;;;;;;;4.68;1.27;;;19.10;99.90;;;;;;5008246;28;20104;-72
2022/10/21 12:44:45;;;;;;;21.30;3.38;;;19.00;99.90;;;;;;5002188;28;20026;-72
2022/10/21 12:47:27;;;;;;;3.30;1.60;;;18.90;99.90;;;;;;5005536;28;20118;-71
2022/10/21 12:50:14;;;;;;;1.55;1.10;;;18.90;99.90;;;;;;5002069;28;20027;-70
2022/10/21 12:52:42;;;;;;;2.00;1.10;;;19.10;99.90;;;;;;4996826;28;20674;-70
2022/10/21 12:55:39;;;;;;;2.85;1.42;;;19.20;99.90;;;;;;4988411;28;20029;-69
2022/10/21 12:58:18;;;;;;;5.70;1.55;;;19.40;99.90;;;;;;4992416;28;20046;-72
2022/10/21 13:00:43;;;;;;;4.97;1.77;;;19.40;99.90;;;;;;5004990;28;20528;-71
2022/10/21 13:03:32;;;;;;;1.90;1.15;;;19.50;99.90;;;;;;5011350;28;20034;-71
2022/10/21 13:06:01;;;;;;;3.50;0.93;;;19.40;99.90;;;;;;4981727;28;20034;-70